Time;durP1;ratioP1;P1;durP2;ratioP2;P2;SDS_P1;SDS_P2;PMS_P1;PMS_P2;Temp;Humidity;BMP_temperature;BMP_pressure;BME280_temperature;BME280_humidity;BME280_pressure;Samples;Min_cycle;Max_cycle;Signal;HPM_P1;HPM_P2
2022/07/27 00:02:05;;;;;;;;;;;20.20;99.90;;;;;;4972171;28;20200;-61
2022/07/27 00:04:34;;;;;;;;;;;20.10;99.90;;;;;;4972601;28;20667;-62
2022/07/27 00:07:02;;;;;;;;;;;20.00;99.90;;;;;;4972433;28;20740;-62
2022/07/27 00:09:30;;;;;;;;;;;20.00;99.90;;;;;;4972489;28;20196;-62
2022/07/27 00:11:57;;;;;;;;;;;20.00;99.90;;;;;;4972071;28;20292;-61
2022/07/27 00:14:25;;;;;;;;;;;19.90;99.90;;;;;;4972529;28;20204;-62
2022/07/27 00:16:53;;;;;;;;;;;19.80;99.90;;;;;;4972227;28;20253;-62
2022/07/27 00:19:22;;;;;;;;;;;19.80;99.90;;;;;;4972087;28;20653;-62
2022/07/27 00:21:51;;;;;;;;;;;19.80;99.90;;;;;;4972048;28;20743;-62
2022/07/27 00:24:19;;;;;;;;;;;19.70;99.90;;;;;;4975124;28;20265;-62
2022/07/27 00:26:47;;;;;;;;;;;19.80;99.90;;;;;;4971616;28;20257;-62
2022/07/27 00:29:14;;;;;;;;;;;19.70;99.90;;;;;;4972173;28;20208;-62
2022/07/27 00:31:42;;;;;;;;;;;19.60;99.90;;;;;;4972262;28;20249;-62
2022/07/27 00:34:10;;;;;;;;;;;19.60;99.90;;;;;;4971967;28;20204;-62
2022/07/27 00:36:38;;;;;;;;;;;19.70;99.90;;;;;;4971659;28;20596;-62
2022/07/27 00:39:07;;;;;;;;;;;19.80;99.90;;;;;;4972040;28;20204;-62
2022/07/27 00:41:36;;;;;;;;;;;19.70;99.90;;;;;;4972117;28;20207;-62
2022/07/27 00:44:05;;;;;;;;;;;19.70;99.90;;;;;;4971871;28;20204;-62
2022/07/27 00:46:33;;;;;;;;;;;19.60;99.90;;;;;;4971786;28;20200;-62
2022/07/27 00:49:01;;;;;;;;;;;19.70;99.90;;;;;;4971771;28;20192;-62
2022/07/27 00:51:29;;;;;;;;;;;19.70;99.90;;;;;;4970912;28;20246;-62
2022/07/27 00:53:57;;;;;;;;;;;20.10;99.90;;;;;;4969768;28;20200;-62
2022/07/27 00:56:26;;;;;;;;;;;20.00;99.90;;;;;;4968998;28;20305;-61
2022/07/27 00:58:53;;;;;;;;;;;19.70;99.90;;;;;;4975048;28;20207;-62
2022/07/27 01:01:21;;;;;;;;;;;19.70;99.90;;;;;;4973647;28;20204;-62
2022/07/27 01:03:49;;;;;;;;;;;19.90;99.90;;;;;;4966231;28;20205;-62
2022/07/27 01:06:18;;;;;;;;;;;20.00;99.90;;;;;;4972073;28;20746;-62
2022/07/27 01:09:55;;;;;;;;;;;20.40;99.90;;;;;;4973038;28;20286;-62
2022/07/27 01:11:43;;;;;;;;;;;20.00;99.90;;;;;;4965456;28;20196;-62
2022/07/27 01:14:12;;;;;;;;;;;19.90;99.90;;;;;;4967781;28;20853;-62
2022/07/27 01:16:39;;;;;;;;;;;20.20;99.90;;;;;;4967138;28;20985;-62
2022/07/27 01:19:08;;;;;;;;;;;20.40;99.90;;;;;;4974385;28;20191;-62
2022/07/27 01:21:38;;;;;;;;;;;20.30;99.90;;;;;;4969098;28;20205;-62
2022/07/27 01:24:06;;;;;;;;;;;20.30;99.90;;;;;;4981343;28;20217;-62
2022/07/27 01:26:34;;;;;;;;;;;20.40;99.90;;;;;;4972984;28;20253;-62
2022/07/27 01:29:02;;;;;;;;;;;20.80;99.90;;;;;;4974058;28;20621;-63
2022/07/27 01:31:30;;;;;;;;;;;21.10;99.90;;;;;;4971761;28;20266;-63
2022/07/27 01:33:58;;;;;;;;;;;21.00;99.90;;;;;;4972406;28;20692;-63
2022/07/27 01:36:26;;;;;;;;;;;21.00;99.90;;;;;;4967328;28;20212;-63
2022/07/27 01:38:57;;;;;;;;;;;20.80;99.90;;;;;;4974412;28;20219;-63
2022/07/27 01:41:25;;;;;;;;;;;20.80;99.90;;;;;;4977670;28;20249;-63
2022/07/27 01:43:53;;;;;;;;;;;21.00;99.90;;;;;;4968832;28;20497;-63
2022/07/27 01:46:20;;;;;;;;;;;21.10;99.90;;;;;;4970713;28;20258;-62
2022/07/27 01:48:48;;;;;;;;;;;20.90;99.90;;;;;;4973824;28;20249;-63
2022/07/27 01:51:16;;;;;;;;;;;20.80;99.90;;;;;;4966525;28;20201;-63
2022/07/27 01:53:44;;;;;;;;;;;20.60;99.90;;;;;;4967851;28;20258;-63
2022/07/27 01:56:13;;;;;;;;;;;20.40;99.90;;;;;;4976829;28;20777;-62
2022/07/27 01:58:42;;;;;;;;;;;20.40;99.90;;;;;;4970742;28;20200;-63
2022/07/27 02:01:10;;;;;;;;;;;20.20;99.90;;;;;;4975670;28;20213;-63
2022/07/27 02:03:38;;;;;;;;;;;20.10;99.90;;;;;;4964797;28;20233;-63
2022/07/27 02:06:06;;;;;;;;;;;20.30;99.90;;;;;;4969058;28;20273;-62
2022/07/27 02:08:33;;;;;;;;;;;20.20;99.90;;;;;;4963997;28;20200;-63
2022/07/27 02:13:48;;;;;;;;;;;20.30;99.90;;;;;;4965869;28;20200;-62
2022/07/27 02:16:17;;;;;;;;;;;20.40;99.90;;;;;;4975584;28;20207;-62
2022/07/27 02:18:45;;;;;;;;;;;20.60;99.90;;;;;;4973787;28;20196;-62
2022/07/27 02:21:15;;;;;;;;;;;20.70;99.90;;;;;;4965973;28;20287;-62
2022/07/27 02:23:45;;;;;;;;;;;20.80;99.90;;;;;;4963613;28;20265;-62
2022/07/27 02:26:13;;;;;;;;;;;20.60;99.90;;;;;;4970789;28;20616;-63
2022/07/27 02:28:41;;;;;;;;;;;20.60;99.90;;;;;;4972080;28;20217;-62
2022/07/27 02:31:10;;;;;;;;;;;20.40;99.90;;;;;;4965236;28;20200;-62
2022/07/27 02:33:37;;;;;;;;;;;20.40;99.90;;;;;;4969968;28;20254;-62
2022/07/27 02:36:05;;;;;;;;;;;20.50;99.90;;;;;;4966634;28;20228;-64
2022/07/27 02:38:33;;;;;;;;;;;20.50;99.90;;;;;;4966720;28;20250;-62
2022/07/27 02:41:05;;;;;;;;;;;20.60;99.90;;;;;;4973324;28;20199;-62
2022/07/27 02:43:33;;;;;;;;;;;20.60;99.90;;;;;;4968334;28;20204;-62
2022/07/27 02:46:01;;;;;;;;;;;20.60;99.90;;;;;;4964402;28;20192;-62
2022/07/27 02:48:31;;;;;;;;;;;20.50;99.90;;;;;;4971230;28;20200;-62
2022/07/27 02:50:59;;;;;;;;;;;20.50;99.90;;;;;;4968161;28;20211;-62
2022/07/27 02:53:27;;;;;;;;;;;20.40;99.90;;;;;;4966365;28;20208;-63
2022/07/27 02:55:55;;;;;;;;;;;20.30;99.90;;;;;;4971292;28;20196;-62
2022/07/27 02:58:23;;;;;;;;;;;20.30;99.90;;;;;;4969310;28;20230;-63
2022/07/27 03:00:51;;;;;;;;;;;20.30;99.90;;;;;;4971365;28;20626;-63
2022/07/27 03:03:25;;;;;;;;;;;20.30;99.90;;;;;;4967711;28;20232;-63
2022/07/27 03:06:05;;;;;;;;;;;20.20;99.90;;;;;;4970669;28;20219;-63
2022/07/27 03:08:33;;;;;;;;;;;20.00;99.90;;;;;;4966098;28;20588;-63
2022/07/27 03:11:00;;;;;;;;;;;20.00;99.90;;;;;;4970228;28;20197;-63
2022/07/27 03:13:28;;;;;;;;;;;20.00;99.90;;;;;;4969380;28;20208;-62
2022/07/27 03:15:56;;;;;;;;;;;19.80;99.90;;;;;;4975577;28;20265;-62
2022/07/27 03:18:24;;;;;;;;;;;19.90;99.90;;;;;;4964740;28;20261;-62
2022/07/27 03:20:52;;;;;;;;;;;19.80;99.90;;;;;;4969482;28;20200;-62
2022/07/27 03:23:21;;;;;;;;;;;20.00;99.90;;;;;;4966658;28;20199;-62
2022/07/27 03:25:49;;;;;;;;;;;20.20;99.90;;;;;;4968639;28;20208;-62
2022/07/27 03:28:16;;;;;;;;;;;20.60;99.90;;;;;;4972233;28;20620;-62
2022/07/27 03:30:45;;;;;;;;;;;20.70;99.90;;;;;;4969561;28;20269;-63
2022/07/27 03:33:13;;;;;;;;;;;20.40;99.90;;;;;;4964967;28;20692;-62
2022/07/27 03:35:40;;;;;;;;;;;20.60;99.90;;;;;;4968011;28;20246;-63
2022/07/27 03:38:08;;;;;;;;;;;20.50;99.90;;;;;;4972325;28;20226;-62
2022/07/27 03:40:39;;;;;;;;;;;20.50;99.90;;;;;;4971684;28;20200;-63
2022/07/27 03:43:07;;;;;;;;;;;20.60;99.90;;;;;;4974859;28;20192;-63
2022/07/27 03:45:35;;;;;;;;;;;20.60;99.90;;;;;;4969477;28;20250;-63
2022/07/27 03:48:03;;;;;;;;;;;20.60;99.90;;;;;;4972627;28;20231;-63
2022/07/27 03:50:31;;;;;;;;;;;20.90;99.90;;;;;;4969677;28;20653;-63
2022/07/27 03:52:58;;;;;;;;;;;21.10;99.90;;;;;;4965271;28;20288;-62
2022/07/27 03:55:26;;;;;;;;;;;20.80;99.90;;;;;;4970781;28;20257;-62
2022/07/27 03:57:55;;;;;;;;;;;20.70;99.90;;;;;;4969245;28;20739;-63
2022/07/27 04:00:23;;;;;;;;;;;20.80;99.90;;;;;;4969411;28;20197;-62
2022/07/27 04:02:51;;;;;;;;;;;20.70;99.90;;;;;;4967547;28;20219;-62
2022/07/27 04:05:20;;;;;;;;;;;20.70;99.90;;;;;;4970622;28;20208;-62
2022/07/27 04:07:48;;;;;;;;;;;20.60;99.90;;;;;;4974332;28;20208;-62
2022/07/27 04:10:21;;;;;;;;;;;20.70;99.90;;;;;;4978694;28;20205;-63
2022/07/27 04:12:51;;;;;;;;;;;20.60;99.90;;;;;;4970453;28;20204;-63
2022/07/27 04:15:21;;;;;;;;;;;20.40;99.90;;;;;;4974259;28;20192;-63
2022/07/27 04:17:49;;;;;;;;;;;20.10;99.90;;;;;;4968733;28;20246;-63
2022/07/27 04:20:23;;;;;;;;;;;20.10;99.90;;;;;;4968571;28;20616;-62
2022/07/27 04:22:51;;;;;;;;;;;20.30;99.90;;;;;;4966451;28;20204;-62
2022/07/27 04:25:18;;;;;;;;;;;19.90;99.90;;;;;;4959764;28;20196;-63
2022/07/27 04:27:46;;;;;;;;;;;19.70;99.90;;;;;;4957688;28;21009;-63
2022/07/27 04:30:14;;;;;;;;;;;19.60;99.90;;;;;;4957674;28;20277;-63
2022/07/27 04:32:43;;;;;;;;;;;19.60;99.90;;;;;;4956909;28;20204;-63
2022/07/27 04:35:11;;;;;;;;;;;19.40;99.90;;;;;;4957135;28;20227;-62
2022/07/27 04:37:39;;;;;;;;;;;19.40;99.90;;;;;;4957586;28;20203;-63
2022/07/27 04:40:24;;;;;;;;;;;19.30;99.90;;;;;;4958870;28;20277;-64
2022/07/27 04:42:52;;;;;;;;;;;19.20;99.90;;;;;;4959257;28;20208;-63
2022/07/27 04:45:20;;;;;;;;;;;19.20;99.90;;;;;;4960567;28;20204;-63
2022/07/27 04:47:49;;;;;;;;;;;19.20;99.90;;;;;;4959392;28;20211;-63
2022/07/27 04:50:16;;;;;;;;;;;19.00;99.90;;;;;;4956944;28;20192;-63
2022/07/27 04:52:45;;;;;;;;;;;18.90;99.90;;;;;;4957474;28;20269;-63
2022/07/27 04:55:12;;;;;;;;;;;18.70;99.90;;;;;;4956087;28;20208;-63
2022/07/27 04:57:41;;;;;;;;;;;18.60;99.90;;;;;;4957488;28;21141;-62
2022/07/27 05:00:09;;;;;;;;;;;18.50;99.90;;;;;;4957286;28;20257;-62
2022/07/27 05:02:38;;;;;;;;;;;18.40;99.90;;;;;;4957028;28;20212;-62
2022/07/27 05:05:08;;;;;;;;;;;18.40;99.90;;;;;;4953725;28;20265;-62
2022/07/27 05:07:36;;;;;;;;;;;18.40;99.90;;;;;;4957660;28;20208;-62
2022/07/27 05:10:04;;;;;;;;;;;18.30;99.90;;;;;;4957836;28;20207;-62
2022/07/27 05:12:32;;;;;;;;;;;18.40;99.90;;;;;;4956541;28;20212;-62
2022/07/27 05:15:00;;;;;;;;;;;18.30;99.90;;;;;;4956373;28;20246;-62
2022/07/27 05:17:27;;;;;;;;;;;18.40;99.90;;;;;;4955899;28;20208;-63
2022/07/27 05:19:55;;;;;;;;;;;18.60;99.90;;;;;;4957333;28;20204;-62
2022/07/27 05:22:24;;;;;;;;;;;18.50;99.90;;;;;;4956439;28;20216;-62
2022/07/27 05:24:52;;;;;;;;;;;18.50;99.90;;;;;;4956920;28;20204;-63
2022/07/27 05:27:20;;;;;;;;;;;18.50;99.90;;;;;;4958983;28;20200;-62
2022/07/27 05:29:48;;;;;;;;;;;18.40;99.90;;;;;;4958740;28;20228;-63
2022/07/27 05:32:16;;;;;;;;;;;18.40;99.90;;;;;;4954564;28;21438;-62
2022/07/27 05:34:44;;;;;;;;;;;18.40;99.90;;;;;;4955236;28;20228;-62
2022/07/27 05:37:12;;;;;;;;;;;18.40;99.90;;;;;;4956571;28;20204;-62
2022/07/27 05:39:42;;;;;;;;;;;18.40;99.90;;;;;;4958606;28;20208;-62
2022/07/27 05:42:10;;;;;;;;;;;18.40;99.90;;;;;;4953911;28;20204;-62
2022/07/27 05:44:37;;;;;;;;;;;18.40;99.90;;;;;;4954902;28;20230;-63
2022/07/27 05:47:05;;;;;;;;;;;18.40;99.90;;;;;;4956259;28;20208;-63
2022/07/27 05:49:38;;;;;;;;;;;18.50;99.90;;;;;;4956790;28;21093;-62
2022/07/27 05:52:06;;;;;;;;;;;18.50;99.90;;;;;;4955657;28;20126;-62
2022/07/27 05:54:33;;;;;;;;;;;18.60;99.90;;;;;;4956290;28;20289;-63
2022/07/27 05:57:02;;;;;;;;;;;18.50;99.90;;;;;;4966024;28;20245;-61
2022/07/27 05:59:31;;;;;;;;;;;18.50;99.90;;;;;;4966536;28;20199;-61
2022/07/27 06:01:59;;;;;;;;;;;18.50;99.90;;;;;;4969378;28;20200;-61
2022/07/27 06:04:27;;;;;;;;;;;18.50;99.90;;;;;;4964433;28;20586;-62
2022/07/27 06:09:40;;;;;;;;;;;18.50;99.90;;;;;;4970740;28;20211;-62
2022/07/27 06:12:10;;;;;;;;;;;18.60;99.90;;;;;;4970452;28;20622;-62
2022/07/27 06:14:37;;;;;;;;;;;18.50;99.90;;;;;;4970761;28;20231;-62
2022/07/27 06:17:06;;;;;;;;;;;18.50;99.90;;;;;;4967402;28;20207;-62
2022/07/27 06:19:38;;;;;;;;;;;18.70;99.90;;;;;;4980867;28;20212;-63
2022/07/27 06:22:06;;;;;;;;;;;18.90;99.90;;;;;;4988450;28;20245;-63
2022/07/27 06:24:34;;;;;;;;;;;18.80;99.90;;;;;;4967625;28;20283;-64
2022/07/27 06:27:01;;;;;;;;;;;18.80;99.90;;;;;;4968744;28;20203;-63
2022/07/27 06:29:31;;;;;;;;;;;18.80;99.90;;;;;;4968550;28;20680;-64
2022/07/27 06:31:58;;;;;;;;;;;18.90;99.90;;;;;;4976963;28;20260;-64
2022/07/27 06:34:27;;;;;;;;;;;19.00;99.90;;;;;;4965566;28;20230;-64
2022/07/27 06:36:58;;;;;;;;;;;19.00;99.90;;;;;;4977736;28;20215;-64
2022/07/27 06:39:25;;;;;;;;;;;19.10;99.90;;;;;;4970165;28;20674;-64
2022/07/27 06:41:53;;;;;;;;;;;19.30;99.90;;;;;;4970043;28;20661;-63
2022/07/27 06:44:25;;;;;;;;;;;19.50;99.90;;;;;;4970167;28;20204;-63
2022/07/27 06:46:54;;;;;;;;;;;19.60;99.90;;;;;;4970320;28;20257;-64
2022/07/27 06:49:22;;;;;;;;;;;19.60;99.90;;;;;;4969934;28;20196;-64
2022/07/27 06:51:49;;;;;;;;;;;19.50;99.90;;;;;;4970027;28;20206;-63
2022/07/27 06:54:17;;;;;;;;;;;19.60;99.90;;;;;;4970099;28;20204;-64
2022/07/27 06:56:45;;;;;;;;;;;19.60;99.90;;;;;;4970268;28;20262;-64
2022/07/27 06:59:13;;;;;;;;;;;19.60;99.90;;;;;;4970020;28;20208;-64
2022/07/27 07:01:42;;;;;;;;;;;19.60;99.90;;;;;;4970438;28;20196;-63
2022/07/27 07:04:16;;;;;;;;;;;19.40;99.90;;;;;;4970168;28;20632;-64
2022/07/27 07:06:52;;;;;;;;;;;19.50;99.90;;;;;;4970726;28;20298;-63
2022/07/27 07:09:20;;;;;;;;;;;19.40;99.90;;;;;;4973250;28;20205;-64
2022/07/27 07:11:48;;;;;;;;;;;19.40;99.90;;;;;;4973326;28;20262;-63
2022/07/27 07:14:16;;;;;;;;;;;19.50;99.90;;;;;;4973178;28;20200;-64
2022/07/27 07:16:44;;;;;;;;;;;19.80;99.90;;;;;;4973264;28;20200;-63
2022/07/27 07:19:11;;;;;;;;;;;20.10;99.90;;;;;;4972610;28;20254;-64
2022/07/27 07:21:41;;;;;;;;;;;20.30;99.90;;;;;;4973013;28;20561;-64
2022/07/27 07:24:09;;;;;;;;;;;20.40;99.90;;;;;;4973293;28;20230;-63
2022/07/27 07:26:39;;;;;;;;;;;20.40;99.90;;;;;;4973146;28;20286;-63
2022/07/27 07:29:07;;;;;;;;;;;20.60;99.90;;;;;;4972938;28;20208;-64
2022/07/27 07:31:36;;;;;;;;;;;20.70;99.90;;;;;;4973082;28;20208;-63
2022/07/27 07:34:04;;;;;;;;;;;20.90;99.90;;;;;;4972777;28;20208;-63
2022/07/27 07:36:32;;;;;;;;;;;20.90;99.90;;;;;;4973262;28;20196;-63
2022/07/27 07:39:01;;;;;;;;;;;20.90;99.90;;;;;;4972763;28;20193;-63
2022/07/27 07:41:29;;;;;;;;;;;20.90;99.90;;;;;;4972979;28;20628;-64
2022/07/27 07:43:56;;;;;;;;;;;21.00;99.90;;;;;;4972812;28;20242;-63
2022/07/27 07:46:24;;;;;;;;;;;21.00;99.90;;;;;;4972807;28;20215;-64
2022/07/27 07:48:52;;;;;;;;;;;21.10;99.90;;;;;;4972581;28;20200;-63
2022/07/27 07:51:20;;;;;;;;;;;21.20;99.90;;;;;;4972776;28;20200;-64
2022/07/27 07:53:48;;;;;;;;;;;21.30;99.90;;;;;;4972683;28;20339;-63
2022/07/27 07:56:17;;;;;;;;;;;21.40;99.90;;;;;;4972976;28;20621;-64
2022/07/27 07:58:45;;;;;;;;;;;21.50;99.90;;;;;;4972573;28;20226;-63
2022/07/27 08:01:13;;;;;;;;;;;21.20;99.90;;;;;;4972911;28;20212;-63
2022/07/27 08:03:40;;;;;;;;;;;21.30;99.90;;;;;;4972474;28;20657;-64
2022/07/27 08:06:14;;;;;;;;;;;21.30;99.90;;;;;;4972376;28;20737;-63
2022/07/27 08:08:41;;;;;;;;;;;21.60;99.90;;;;;;4972482;28;20665;-64
2022/07/27 08:11:09;;;;;;;;;;;21.70;99.90;;;;;;4972589;28;20196;-63
2022/07/27 08:13:38;;;;;;;;;;;22.00;99.90;;;;;;4972249;28;20731;-63
2022/07/27 08:16:06;;;;;;;;;;;22.30;99.90;;;;;;4972397;28;20200;-63
2022/07/27 08:18:34;;;;;;;;;;;22.40;99.90;;;;;;4971639;28;20207;-64
2022/07/27 08:21:02;;;;;;;;;;;22.40;99.60;;;;;;4972477;28;20685;-64
2022/07/27 08:23:30;;;;;;;;;;;22.70;99.40;;;;;;4972241;28;20261;-64
2022/07/27 08:25:58;;;;;;;;;;;22.80;98.80;;;;;;4972843;28;20214;-64
2022/07/27 08:28:32;;;;;;;;;;;22.80;98.50;;;;;;4972721;28;20215;-64
2022/07/27 08:31:05;;;;;;;;;;;22.80;97.90;;;;;;4972733;28;20208;-63
2022/07/27 08:33:45;;;;;;;;;;;22.90;98.40;;;;;;4972075;28;20712;-64
2022/07/27 08:36:13;;;;;;;;;;;22.60;97.70;;;;;;4972031;28;20208;-64
2022/07/27 08:38:41;;;;;;;;;;;22.70;96.60;;;;;;4971904;28;20629;-63
2022/07/27 08:41:10;;;;;;;;;;;22.70;96.30;;;;;;4972252;28;20636;-64
2022/07/27 08:43:38;;;;;;;;;;;22.60;96.50;;;;;;4971871;28;20209;-64
2022/07/27 08:46:09;;;;;;;;;;;22.70;96.40;;;;;;4972029;28;20210;-63
2022/07/27 08:48:38;;;;;;;;;;;22.40;95.80;;;;;;4971873;28;20256;-63
2022/07/27 08:51:06;;;;;;;;;;;22.10;96.80;;;;;;4974686;28;20200;-63
2022/07/27 08:53:34;;;;;;;;;;;21.80;96.70;;;;;;4971829;28;20677;-63
2022/07/27 08:56:20;;;;;;;;;;;21.70;96.90;;;;;;4972248;28;20196;-63
2022/07/27 08:58:48;;;;;;;;;;;21.60;97.80;;;;;;4971709;28;20200;-64
2022/07/27 09:01:17;;;;;;;;;;;21.40;97.90;;;;;;4971759;28;20254;-64
2022/07/27 09:03:46;;;;;;;;;;;21.30;97.50;;;;;;4971550;28;20299;-64
2022/07/27 09:06:13;;;;;;;;;;;21.60;98.70;;;;;;4971372;28;20653;-64
2022/07/27 09:08:43;;;;;;;;;;;21.90;97.60;;;;;;4971651;28;20253;-63
2022/07/27 09:11:16;;;;;;;;;;;22.40;96.60;;;;;;4971862;28;20218;-63
2022/07/27 09:13:44;;;;;;;;;;;22.80;96.60;;;;;;4971430;28;20204;-63
2022/07/27 09:16:12;;;;;;;;;;;23.00;95.90;;;;;;4971477;28;20739;-64
2022/07/27 09:18:47;;;;;;;;;;;23.20;95.80;;;;;;4971210;28;20576;-64
2022/07/27 09:21:16;;;;;;;;;;;22.90;95.30;;;;;;4971418;28;20206;-63
2022/07/27 09:23:44;;;;;;;;;;;22.90;95.50;;;;;;4971154;28;20258;-63
2022/07/27 09:26:16;;;;;;;;;;;23.20;95.70;;;;;;4971302;28;20285;-64
2022/07/27 09:29:00;;;;;;;;;;;23.50;95.60;;;;;;4971474;28;20239;-64
2022/07/27 09:31:28;;;;;;;;;;;23.70;94.20;;;;;;4970247;28;20204;-64
2022/07/27 09:33:58;;;;;;;;;;;23.80;94.70;;;;;;4971217;28;20205;-64
2022/07/27 09:36:27;;;;;;;;;;;24.00;94.50;;;;;;4971167;28;20228;-64
2022/07/27 09:38:57;;;;;;;;;;;24.40;94.90;;;;;;4970908;28;20204;-63
2022/07/27 09:41:38;;;;;;;;;;;24.60;93.60;;;;;;4971287;28;20208;-64
2022/07/27 09:44:06;;;;;;;;;;;24.30;93.90;;;;;;4971105;28;20206;-63
2022/07/27 09:46:54;;;;;;;;;;;24.00;93.10;;;;;;4970882;28;20207;-64
2022/07/27 09:49:27;;;;;;;;;;;23.60;93.30;;;;;;4970510;28;20610;-64
2022/07/27 09:51:55;;;;;;;;;;;24.10;94.20;;;;;;4973562;28;20573;-64
2022/07/27 09:54:27;;;;;;;;;;;24.70;93.10;;;;;;4965642;28;20208;-63
2022/07/27 09:56:59;;;;;;;;;;;25.20;92.70;;;;;;4970886;28;20673;-63
2022/07/27 09:59:28;;;;;;;;;;;25.40;92.20;;;;;;4970695;28;20209;-64
2022/07/27 10:01:56;;;;;;;;;;;25.30;91.60;;;;;;4970662;28;20266;-63
2022/07/27 10:04:24;;;;;;;;;;;25.40;92.20;;;;;;4970913;28;20223;-63
2022/07/27 10:06:53;;;;;;;;;;;25.30;91.20;;;;;;4970544;28;20299;-64
2022/07/27 10:09:30;;;;;;;;;;;25.40;90.40;;;;;;4970692;28;20208;-64
2022/07/27 10:11:58;;;;;;;;;;;25.30;90.50;;;;;;4970759;28;20204;-63
2022/07/27 10:14:25;;;;;;;;;;;25.20;91.00;;;;;;4970458;28;20234;-64
2022/07/27 10:16:54;;;;;;;;;;;25.20;91.50;;;;;;4970634;28;20565;-64
2022/07/27 10:19:25;;;;;;;;;;;25.00;91.10;;;;;;4970340;28;20673;-64
2022/07/27 10:21:54;;;;;;;;;;;25.20;91.50;;;;;;4970518;28;20211;-63
2022/07/27 10:24:27;;;;;;;;;;;25.30;90.50;;;;;;4970720;28;20211;-64
2022/07/27 10:26:55;;;;;;;;;;;25.10;91.10;;;;;;4970365;28;20254;-64
2022/07/27 10:29:24;;;;;;;;;;;25.00;90.90;;;;;;4970460;28;20207;-64
2022/07/27 10:31:59;;;;;;;;;;;24.80;91.70;;;;;;4970303;28;20205;-64
2022/07/27 10:34:34;;;;;;;;;;;24.50;91.10;;;;;;4970179;28;20230;-64
2022/07/27 10:37:13;;;;;;;;;;;24.10;91.70;;;;;;4970402;28;20670;-64
2022/07/27 10:39:41;;;;;;;;;;;23.80;92.30;;;;;;4964516;28;20203;-63
2022/07/27 10:42:24;;;;;;;;;;;23.70;92.30;;;;;;4963560;28;20216;-64
2022/07/27 10:44:52;;;;;;;;;;;23.90;91.80;;;;;;4965790;28;20208;-63
2022/07/27 10:47:28;;;;;;;;;;;23.70;91.80;;;;;;4970217;28;20269;-64
2022/07/27 10:50:10;;;;;;;;;;;23.60;91.90;;;;;;4970025;28;20564;-64
2022/07/27 10:52:42;;;;;;;;;;;23.70;92.70;;;;;;4969117;28;20455;-64
2022/07/27 10:55:34;;;;;;;;;;;24.60;91.70;;;;;;4969931;28;20280;-64
2022/07/27 10:58:31;;;;;;;;;;;25.50;91.10;;;;;;4969482;28;20223;-64
2022/07/27 11:00:59;;;;;;;;;;;26.20;88.90;;;;;;4969989;28;20212;-64
2022/07/27 11:03:28;;;;;;;;;;;26.00;87.20;;;;;;4969770;28;20211;-64
2022/07/27 11:05:56;;;;;;;;;;;26.10;89.50;;;;;;4969442;28;20220;-64
2022/07/27 11:08:39;;;;;;;;;;;26.10;88.20;;;;;;4969787;28;20677;-64
2022/07/27 11:11:15;;;;;;;;;;;26.30;87.40;;;;;;4970360;28;20205;-64
2022/07/27 11:13:44;;;;;;;;;;;25.80;87.90;;;;;;4969674;28;20208;-64
2022/07/27 11:16:14;;;;;;;;;;;25.40;88.60;;;;;;4969902;28;20208;-64
2022/07/27 11:18:56;;;;;;;;;;;25.00;88.10;;;;;;4968585;28;20287;-64
2022/07/27 11:21:25;;;;;;;;;;;24.90;90.40;;;;;;4969806;28;20204;-64
2022/07/27 11:23:54;;;;;;;;;;;24.80;90.20;;;;;;4969542;28;20196;-64
2022/07/27 11:26:23;;;;;;;;;;;24.80;90.20;;;;;;4969460;28;20685;-64
2022/07/27 11:28:52;;;;;;;;;;;24.90;90.00;;;;;;4968919;28;20228;-64
2022/07/27 11:31:20;;;;;;;;;;;24.90;90.10;;;;;;4969678;28;20265;-64
2022/07/27 11:34:08;;;;;;;;;;;24.90;90.30;;;;;;4969506;28;20434;-64
2022/07/27 11:36:38;;;;;;;;;;;24.40;90.50;;;;;;4969681;28;20223;-63
2022/07/27 11:39:07;;;;;;;;;;;24.20;90.70;;;;;;4969124;28;20201;-63
2022/07/27 11:41:43;;;;;;;;;;;24.20;90.80;;;;;;4969529;28;20635;-64
2022/07/27 11:44:32;;;;;;;;;;;24.20;90.30;;;;;;4969396;28;20254;-64
2022/07/27 11:47:01;;;;;;;;;;;24.20;90.20;;;;;;4969506;28;20723;-64
2022/07/27 11:49:30;;;;;;;;;;;24.10;90.70;;;;;;4968953;28;20200;-63
2022/07/27 11:51:59;;;;;;;;;;;24.00;90.60;;;;;;4968972;28;20212;-64
2022/07/27 11:54:27;;;;;;;;;;;23.90;90.50;;;;;;4971320;28;20192;-64
2022/07/27 11:56:56;;;;;;;;;;;23.90;91.60;;;;;;5002257;22;20203;-68
2022/07/27 11:59:26;;;;;;;;;;;24.00;91.10;;;;;;4976075;28;20257;-66
2022/07/27 12:01:57;;;;;;;;;;;23.90;90.80;;;;;;4955463;28;20200;-68
2022/07/27 12:04:26;;;;;;;;;;;23.80;91.20;;;;;;4973396;28;20204;-71
2022/07/27 12:07:02;;;;;;;;;;;23.80;90.80;;;;;;4972887;28;20243;-71
2022/07/27 12:09:31;;;;;;;;;;;23.90;91.00;;;;;;4972490;28;20677;-70
2022/07/27 12:12:09;;;;;;;;;;;23.70;90.70;;;;;;4972375;28;20228;-71
2022/07/27 12:14:38;;;;;;;;;;;23.80;91.20;;;;;;4972640;28;20201;-69
2022/07/27 12:17:14;;;;;;;;;;;23.80;90.30;;;;;;4972353;28;20618;-68
2022/07/27 12:19:42;;;;;;;;;;;23.90;90.40;;;;;;4968172;28;20201;-68
2022/07/27 12:22:10;;;;;;;;;;;24.00;90.60;;;;;;4971858;28;20200;-68
2022/07/27 12:24:39;;;;;;;;;;;23.90;90.40;;;;;;4972119;28;20204;-69
2022/07/27 12:27:08;;;;;;;;;;;23.90;90.00;;;;;;4972112;28;20200;-68
2022/07/27 12:29:55;;;;;;;;;;;23.70;90.50;;;;;;4954911;28;20639;-69
2022/07/27 12:32:25;;;;;;;;;;;23.60;90.60;;;;;;4971958;28;20215;-68
2022/07/27 12:34:53;;;;;;;;;;;23.60;90.50;;;;;;4972025;28;20592;-68
2022/07/27 12:37:21;;;;;;;;;;;23.90;91.00;;;;;;4972009;28;20212;-67
2022/07/27 12:39:49;;;;;;;;;;;24.30;89.80;;;;;;4971965;28;20200;-69
2022/07/27 12:42:17;;;;;;;;;;;25.30;91.20;;;;;;4971727;28;20207;-69
2022/07/27 12:44:45;;;;;;;;;;;25.70;87.90;;;;;;4971998;28;20202;-71
2022/07/27 12:50:00;;;;;;;;;;;25.80;87.70;;;;;;4979055;28;20208;-69
2022/07/27 12:52:28;;;;;;;;;;;25.30;87.50;;;;;;4973798;28;20200;-69
2022/07/27 12:54:56;;;;;;;;;;;24.70;87.60;;;;;;4971968;28;20218;-69
2022/07/27 12:57:24;;;;;;;;;;;24.50;88.30;;;;;;4971186;28;20219;-69
2022/07/27 13:00:14;;;;;;;;;;;24.40;88.00;;;;;;4972001;28;20215;-69
2022/07/27 13:02:41;;;;;;;;;;;24.30;90.40;;;;;;4971601;28;20212;-69
2022/07/27 13:05:12;;;;;;;;;;;24.20;90.00;;;;;;4971490;28;20201;-70
2022/07/27 13:07:41;;;;;;;;;;;24.20;89.60;;;;;;4971612;28;20211;-71
2022/07/27 13:10:10;;;;;;;;;;;24.40;89.80;;;;;;4971285;28;20200;-68
2022/07/27 13:12:38;;;;;;;;;;;24.50;88.80;;;;;;4971462;28;20690;-69
2022/07/27 13:15:07;;;;;;;;;;;24.30;88.80;;;;;;4971580;28;21023;-69
2022/07/27 13:17:35;;;;;;;;;;;24.10;89.40;;;;;;4971404;28;20200;-69
2022/07/27 13:20:04;;;;;;;;;;;24.00;89.50;;;;;;4973212;28;20253;-70
2022/07/27 13:22:33;;;;;;;;;;;24.20;89.30;;;;;;4976652;28;20208;-72
2022/07/27 13:25:01;;;;;;;;;;;24.90;88.80;;;;;;4971441;28;20201;-72
2022/07/27 13:27:42;;;;;;;;;;;25.70;87.00;;;;;;4971663;28;20265;-72
2022/07/27 13:30:12;;;;;;;;;;;26.40;87.90;;;;;;4971189;28;20204;-71
2022/07/27 13:32:40;;;;;;;;;;;26.70;85.90;;;;;;4970885;28;20590;-70
2022/07/27 13:35:08;;;;;;;;;;;26.50;83.90;;;;;;4971320;28;20196;-69
2022/07/27 13:37:38;;;;;;;;;;;26.00;84.20;;;;;;4971156;28;20213;-70
2022/07/27 13:40:06;;;;;;;;;;;25.90;86.10;;;;;;4953869;28;20212;-69
2022/07/27 13:42:34;;;;;;;;;;;25.90;85.20;;;;;;4970924;28;20202;-70
2022/07/27 13:45:02;;;;;;;;;;;25.50;85.10;;;;;;4971189;28;20200;-70
2022/07/27 13:47:37;;;;;;;;;;;24.90;85.40;;;;;;4970975;28;20212;-70
2022/07/27 13:50:07;;;;;;;;;;;24.60;87.40;;;;;;4980078;28;20204;-70
2022/07/27 13:52:45;;;;;;;;;;;24.60;88.10;;;;;;4970956;28;20208;-69
2022/07/27 13:55:13;;;;;;;;;;;24.70;87.40;;;;;;4971018;28;20196;-69
2022/07/27 13:57:41;;;;;;;;;;;24.50;86.80;;;;;;4970772;28;20669;-70
2022/07/27 14:00:10;;;;;;;;;;;24.40;86.00;;;;;;4970893;28;20258;-69
2022/07/27 14:02:38;;;;;;;;;;;24.50;86.80;;;;;;4971003;28;20253;-69
2022/07/27 14:05:08;;;;;;;;;;;25.10;86.90;;;;;;4970984;28;20201;-69
2022/07/27 14:07:59;;;;;;;;;;;25.70;85.50;;;;;;4970969;28;20453;-69
2022/07/27 14:10:38;;;;;;;;;;;25.80;84.60;;;;;;4970970;28;20200;-69
2022/07/27 14:13:07;;;;;;;;;;;25.90;83.70;;;;;;4971144;28;20650;-69
2022/07/27 14:15:36;;;;;;;;;;;26.40;84.70;;;;;;4970948;28;20223;-69
2022/07/27 14:18:21;;;;;;;;;;;26.90;82.80;;;;;;4971122;28;20628;-69
2022/07/27 14:20:49;;;;;;;;;;;27.30;82.60;;;;;;4975259;28;20519;-70
2022/07/27 14:23:18;;;;;;;;;;;27.80;81.30;;;;;;4970689;28;20280;-69
2022/07/27 14:25:46;;;;;;;;;;;27.90;81.50;;;;;;4970987;28;20724;-68
2022/07/27 14:28:14;;;;;;;;;;;28.30;79.20;;;;;;4971756;28;20678;-70
2022/07/27 14:30:42;;;;;;;;;;;28.00;79.30;;;;;;4972260;28;20200;-69
2022/07/27 14:33:10;;;;;;;;;;;27.90;79.10;;;;;;4970780;28;20729;-69
2022/07/27 14:35:38;;;;;;;;;;;28.10;80.00;;;;;;4970299;28;20201;-69
2022/07/27 14:38:08;;;;;;;;;;;27.70;80.00;;;;;;4970465;28;20208;-68
2022/07/27 14:40:37;;;;;;;;;;;27.20;80.60;;;;;;4970313;28;20213;-71